Time,TemperatureF,DewpointF,PressureIn,WindDirection,WindDirectionDegrees,WindSpeedMPH,WindSpeedGustMPH,Humidity,HourlyPrecipIn,Conditions,Clouds,dailyrainin,SoftwareType,DateUTC
2013-02-15 00:00:00,32.8,24.1,29.94,WNW,282,0.0,0.0,70,0.00,CLR,,0.00,WeatherDisplay:10.37,2013-02-15 05:00:00,
2013-02-15 00:05:00,32.7,24.0,29.94,WNW,282,0.0,0.0,70,0.00,CLR,,0.00,WeatherDisplay:10.37,2013-02-15 05:05:00,
2013-02-15 00:10:00,32.6,24.2,29.94,WNW,282,0.0,0.0,71,0.00,CLR,,0.00,WeatherDisplay:10.37,2013-02-15 05:10:00,
2013-02-15 00:15:00,32.6,24.2,29.95,WNW,282,0.0,0.0,71,0.00,CLR,,0.00,WeatherDisplay:10.37,2013-02-15 05:15:00,
2013-02-15 00:20:00,32.6,24.2,29.95,WNW,282,0.0,0.0,71,0.00,CLR,,0.00,WeatherDisplay:10.37,2013-02-15 05:20:00,
2013-02-15 00:25:00,32.5,24.1,29.94,WNW,282,0.0,0.0,71,0.00,CLR,,0.00,WeatherDisplay:10.37,2013-02-15 05:25:00,
2013-02-15 00:30:00,32.5,24.1,29.95,WNW,282,0.0,0.0,71,0.00,CLR,,0.00,WeatherDisplay:10.37,2013-02-15 05:30:00,
2013-02-15 00:35:00,32.3,23.9,29.95,WNW,282,0.0,0.0,71,0.00,CLR,,0.00,WeatherDisplay:10.37,2013-02-15 05:35:00,
2013-02-15 00:40:00,32.2,23.8,29.95,WNW,282,0.0,0.0,71,0.00,CLR,,0.00,WeatherDisplay:10.37,2013-02-15 05:40:00,
2013-02-15 00:47:00,32.0,24.0,29.95,WNW,282,0.0,0.0,72,0.00,CLR,,0.00,WeatherDisplay:10.37,2013-02-15 05:47:00,
2013-02-15 00:52:00,31.9,23.9,29.95,WNW,282,0.0,0.0,72,0.00,CLR,,0.00,WeatherDisplay:10.37,2013-02-15 05:52:00,
2013-02-15 00:57:00,31.8,23.8,29.94,WNW,282,0.0,0.0,72,0.00,CLR,,0.00,WeatherDisplay:10.37,2013-02-15 05:57:00,
2013-02-15 01:02:00,31.7,23.7,29.94,WNW,282,0.0,0.0,72,0.00,CLR,,0.00,WeatherDisplay:10.37,2013-02-15 06:02:00,
2013-02-15 01:07:00,31.6,23.6,29.95,West,281,0.3,3.5,72,0.00,CLR,,0.00,WeatherDisplay:10.37,2013-02-15 06:07:00,
2013-02-15 01:12:00,31.6,23.6,29.95,West,281,0.1,1.1,72,0.00,CLR,,0.00,WeatherDisplay:10.37,2013-02-15 06:12:00,
2013-02-15 01:17:00,31.5,23.5,29.95,West,279,0.8,3.5,72,0.00,CLR,,0.00,WeatherDisplay:10.37,2013-02-15 06:17:00,
2013-02-15 01:22:00,31.5,23.5,29.95,West,277,0.0,0.0,72,0.00,CLR,,0.00,WeatherDisplay:10.37,2013-02-15 06:22:00,
2013-02-15 01:27:00,31.6,23.6,29.95,West,277,0.0,0.0,72,0.00,CLR,,0.00,WeatherDisplay:10.37,2013-02-15 06:27:00,
2013-02-15 01:32:00,31.5,23.5,29.95,West,276,0.3,2.3,72,0.00,CLR,,0.00,WeatherDisplay:10.37,2013-02-15 06:32:00,
2013-02-15 01:37:00,31.6,23.6,29.95,West,275,0.0,0.0,72,0.00,CLR,,0.00,WeatherDisplay:10.37,2013-02-15 06:37:00,
2013-02-15 01:42:00,31.6,23.6,29.95,West,275,0.0,0.0,72,0.00,CLR,,0.00,WeatherDisplay:10.37,2013-02-15 06:42:00,
2013-02-15 01:47:00,31.6,23.9,29.95,West,275,0.0,0.0,73,0.00,CLR,,0.00,WeatherDisplay:10.37,2013-02-15 06:47:00,
2013-02-15 01:52:00,31.7,24.0,29.95,WSW,250,1.0,4.6,73,0.00,CLR,,0.00,WeatherDisplay:10.37,2013-02-15 06:52:00,
2013-02-15 01:57:00,31.7,24.0,29.95,WSW,254,0.0,0.0,73,0.00,CLR,,0.00,WeatherDisplay:10.37,2013-02-15 06:57:00,
2013-02-15 02:02:00,31.9,24.2,29.95,West,275,1.7,5.8,73,0.00,CLR,,0.00,WeatherDisplay:10.37,2013-02-15 07:02:00,
2013-02-15 02:07:00,32.0,24.3,29.95,West,271,0.2,0.0,73,0.00,CLR,,0.00,WeatherDisplay:10.37,2013-02-15 07:07:00,
2013-02-15 02:12:00,32.1,24.4,29.95,West,267,0.7,3.5,73,0.00,CLR,,0.00,WeatherDisplay:10.37,2013-02-15 07:12:00,
2013-02-15 02:17:00,32.1,24.7,29.95,West,268,0.5,1.1,74,0.00,CLR,,0.00,WeatherDisplay:10.37,2013-02-15 07:17:00,
2013-02-15 02:22:00,32.1,24.7,29.95,West,263,0.0,2.3,74,0.00,CLR,,0.00,WeatherDisplay:10.37,2013-02-15 07:22:00,
2013-02-15 02:27:00,32.1,24.7,29.96,West,259,0.0,0.0,74,0.00,CLR,,0.00,WeatherDisplay:10.37,2013-02-15 07:27:00,
2013-02-15 02:32:00,32.1,24.7,29.96,WSW,257,0.0,0.0,74,0.00,CLR,,0.00,WeatherDisplay:10.37,2013-02-15 07:32:00,
2013-02-15 02:37:00,32.0,24.6,29.96,WSW,257,0.0,0.0,74,0.00,CLR,,0.00,WeatherDisplay:10.37,2013-02-15 07:37:00,
2013-02-15 02:42:00,31.9,24.6,29.95,WSW,242,1.0,2.3,74,0.00,CLR,,0.00,WeatherDisplay:10.37,2013-02-15 07:42:00,
2013-02-15 02:47:00,31.8,24.5,29.96,WSW,242,0.0,0.0,74,0.00,CLR,,0.00,WeatherDisplay:10.37,2013-02-15 07:47:00,
2013-02-15 02:52:00,31.6,24.3,29.96,WSW,245,0.0,2.3,74,0.00,CLR,,0.00,WeatherDisplay:10.37,2013-02-15 07:52:00,
2013-02-15 02:57:00,31.5,24.2,29.96,WSW,245,0.0,0.0,74,0.00,CLR,,0.00,WeatherDisplay:10.37,2013-02-15 07:57:00,
2013-02-15 03:02:00,31.4,24.1,29.96,WSW,245,0.0,0.0,74,0.00,CLR,,0.00,WeatherDisplay:10.37,2013-02-15 08:02:00,
2013-02-15 03:07:00,31.3,24.0,29.96,WSW,246,0.0,0.0,74,0.00,CLR,,0.00,WeatherDisplay:10.37,2013-02-15 08:07:00,
2013-02-15 03:12:00,31.2,23.9,29.97,WSW,246,0.0,3.5,74,0.00,CLR,,0.00,WeatherDisplay:10.37,2013-02-15 08:12:00,
2013-02-15 03:17:00,31.2,23.9,29.96,WSW,246,0.0,0.0,74,0.00,CLR,,0.00,WeatherDisplay:10.37,2013-02-15 08:17:00,
2013-02-15 03:22:00,31.2,23.9,29.96,WSW,246,0.0,0.0,74,0.00,CLR,,0.00,WeatherDisplay:10.37,2013-02-15 08:22:00,
2013-02-15 03:27:00,31.2,23.9,29.96,WSW,246,0.0,0.0,74,0.00,CLR,,0.00,WeatherDisplay:10.37,2013-02-15 08:27:00,
2013-02-15 03:32:00,31.3,24.3,29.97,WSW,246,0.0,0.0,75,0.00,CLR,,0.00,WeatherDisplay:10.37,2013-02-15 08:32:00,
2013-02-15 03:37:00,31.3,24.3,29.97,WSW,246,0.0,0.0,75,0.00,CLR,,0.00,WeatherDisplay:10.37,2013-02-15 08:37:00,
2013-02-15 03:42:00,31.3,24.3,29.97,WSW,246,0.0,0.0,75,0.00,CLR,,0.00,WeatherDisplay:10.37,2013-02-15 08:42:00,
2013-02-15 03:47:00,31.3,24.3,29.97,WSW,246,0.0,0.0,75,0.00,CLR,,0.00,WeatherDisplay:10.37,2013-02-15 08:47:00,
2013-02-15 03:52:00,31.2,24.2,29.96,WSW,246,0.0,0.0,75,0.00,CLR,,0.00,WeatherDisplay:10.37,2013-02-15 08:52:00,
2013-02-15 03:57:00,31.2,24.5,29.97,WSW,246,0.0,0.0,76,0.00,CLR,,0.00,WeatherDisplay:10.37,2013-02-15 08:57:00,
2013-02-15 04:02:00,31.2,24.5,29.97,WSW,250,0.0,0.0,76,0.00,CLR,,0.00,WeatherDisplay:10.37,2013-02-15 09:02:00,
2013-02-15 04:07:00,31.2,24.5,29.97,WSW,255,0.9,3.5,76,0.00,CLR,,0.00,WeatherDisplay:10.37,2013-02-15 09:07:00,
2013-02-15 04:12:00,31.3,24.9,29.96,WSW,255,0.0,0.0,77,0.00,CLR,,0.00,WeatherDisplay:10.37,2013-02-15 09:12:00,
2013-02-15 04:17:00,31.4,25.0,29.96,WSW,255,0.0,0.0,77,0.00,CLR,,0.00,WeatherDisplay:10.37,2013-02-15 09:17:00,
2013-02-15 04:22:00,31.4,25.0,29.97,WSW,255,0.0,0.0,77,0.00,CLR,,0.00,WeatherDisplay:10.37,2013-02-15 09:22:00,
2013-02-15 04:27:00,31.4,25.0,29.97,WSW,257,0.0,2.0,77,0.00,CLR,,0.00,WeatherDisplay:10.37,2013-02-15 09:27:00,
2013-02-15 04:32:00,31.5,25.1,29.97,West,271,0.6,3.5,77,0.00,CLR,,0.00,WeatherDisplay:10.37,2013-02-15 09:32:00,
2013-02-15 04:37:00,31.6,25.2,29.97,West,270,0.0,0.0,77,0.00,CLR,,0.00,WeatherDisplay:10.37,2013-02-15 09:37:00,
2013-02-15 04:42:00,31.6,25.2,29.97,WNW,282,0.4,3.5,77,0.00,CLR,,0.00,WeatherDisplay:10.37,2013-02-15 09:42:00,
2013-02-15 04:47:00,31.6,25.2,29.97,WNW,282,0.0,0.0,77,0.00,CLR,,0.00,WeatherDisplay:10.37,2013-02-15 09:47:00,
2013-02-15 04:52:00,31.6,25.2,29.97,WNW,282,0.6,2.3,77,0.00,CLR,,0.00,WeatherDisplay:10.37,2013-02-15 09:52:00,
2013-02-15 04:57:00,31.6,25.5,29.97,West,274,0.0,0.0,78,0.00,CLR,,0.00,WeatherDisplay:10.37,2013-02-15 09:57:00,
2013-02-15 05:02:00,31.6,25.5,29.97,West,275,0.2,2.0,78,0.00,CLR,,0.00,WeatherDisplay:10.37,2013-02-15 10:02:00,
2013-02-15 05:07:00,31.6,25.5,29.97,West,269,0.0,0.0,78,0.00,CLR,,0.00,WeatherDisplay:10.37,2013-02-15 10:07:00,
2013-02-15 05:12:00,31.6,25.5,29.97,West,279,0.7,2.3,78,0.00,CLR,,0.00,WeatherDisplay:10.37,2013-02-15 10:12:00,
2013-02-15 05:17:00,31.6,25.8,29.98,West,281,0.1,3.5,79,0.00,CLR,,0.00,WeatherDisplay:10.37,2013-02-15 10:17:00,
2013-02-15 05:22:00,31.6,25.8,29.97,WNW,282,0.0,0.0,79,0.00,CLR,,0.00,WeatherDisplay:10.37,2013-02-15 10:22:00,
2013-02-15 05:27:00,31.6,25.8,29.98,WNW,288,0.0,3.5,79,0.00,CLR,,0.00,WeatherDisplay:10.37,2013-02-15 10:27:00,
2013-02-15 05:32:00,31.6,25.8,29.98,WNW,293,0.5,3.5,79,0.00,CLR,,0.00,WeatherDisplay:10.37,2013-02-15 10:32:00,
2013-02-15 05:37:00,31.6,25.5,29.98,NW,313,0.7,3.5,78,0.00,CLR,,0.00,WeatherDisplay:10.37,2013-02-15 10:37:00,
2013-02-15 05:42:00,31.6,25.5,29.98,NW,304,0.0,0.0,78,0.00,CLR,,0.00,WeatherDisplay:10.37,2013-02-15 10:42:00,
2013-02-15 05:47:00,31.6,25.5,29.99,WNW,284,0.4,2.3,78,0.00,CLR,,0.00,WeatherDisplay:10.37,2013-02-15 10:47:00,
2013-02-15 05:52:00,31.6,25.5,29.99,West,275,0.0,0.0,78,0.00,CLR,,0.00,WeatherDisplay:10.37,2013-02-15 10:52:00,
2013-02-15 05:57:00,31.6,25.5,29.99,West,280,0.5,3.0,78,0.00,CLR,,0.00,WeatherDisplay:10.37,2013-02-15 10:57:00,
2013-02-15 06:02:00,31.6,25.2,29.99,WNW,292,1.4,3.5,77,0.00,CLR,,0.00,WeatherDisplay:10.37,2013-02-15 11:02:00,
2013-02-15 06:07:00,31.6,25.2,29.99,NW,313,0.5,2.3,77,0.00,CLR,,0.00,WeatherDisplay:10.37,2013-02-15 11:07:00,
2013-02-15 06:12:00,31.6,25.2,29.99,WNW,295,0.8,3.5,77,0.00,CLR,,0.00,WeatherDisplay:10.37,2013-02-15 11:12:00,
2013-02-15 06:17:00,31.6,25.2,29.99,WNW,294,0.1,0.0,77,0.00,CLR,,0.00,WeatherDisplay:10.37,2013-02-15 11:17:00,
2013-02-15 06:22:00,31.6,25.2,29.99,WNW,294,0.3,0.0,77,0.00,CLR,,0.00,WeatherDisplay:10.37,2013-02-15 11:22:00,
2013-02-15 06:27:00,31.6,25.2,29.99,WNW,298,0.1,2.0,77,0.00,CLR,,0.00,WeatherDisplay:10.37,2013-02-15 11:27:00,
2013-02-15 06:32:00,31.5,25.1,29.99,WNW,299,1.9,3.5,77,0.00,CLR,,0.00,WeatherDisplay:10.37,2013-02-15 11:32:00,
2013-02-15 06:37:00,31.5,25.1,29.99,NW,309,0.7,3.0,77,0.00,CLR,,0.00,WeatherDisplay:10.37,2013-02-15 11:37:00,
2013-02-15 06:42:00,31.6,25.2,29.99,NW,309,0.0,1.1,77,0.00,CLR,,0.00,WeatherDisplay:10.37,2013-02-15 11:42:00,
2013-02-15 06:47:00,31.6,24.9,30.00,NW,315,1.4,3.5,76,0.00,CLR,,0.00,WeatherDisplay:10.37,2013-02-15 11:47:00,
2013-02-15 06:52:00,31.6,24.9,30.00,NW,308,0.2,2.3,76,0.00,CLR,,0.00,WeatherDisplay:10.37,2013-02-15 11:52:00,
2013-02-15 06:57:00,31.6,24.9,30.00,NW,307,0.0,2.3,76,0.00,CLR,,0.00,WeatherDisplay:10.37,2013-02-15 11:57:00,
2013-02-15 07:02:00,31.6,24.9,30.00,NW,307,2.0,5.8,76,0.00,CLR,,0.00,WeatherDisplay:10.37,2013-02-15 12:02:00,
2013-02-15 07:07:00,31.6,24.9,30.00,WNW,287,1.0,0.0,76,0.00,CLR,,0.00,WeatherDisplay:10.37,2013-02-15 12:07:00,
2013-02-15 07:12:00,31.6,24.9,30.00,West,275,1.4,4.6,76,0.00,CLR,,0.00,WeatherDisplay:10.37,2013-02-15 12:12:00,
2013-02-15 07:17:00,31.6,24.9,30.00,WNW,292,0.7,0.0,76,0.00,CLR,,0.00,WeatherDisplay:10.37,2013-02-15 12:17:00,
2013-02-15 07:22:00,31.6,24.9,30.01,WNW,297,2.6,6.9,76,0.00,CLR,,0.00,WeatherDisplay:10.37,2013-02-15 12:22:00,
2013-02-15 07:27:00,31.7,25.0,30.01,WNW,290,0.5,4.6,76,0.00,CLR,,0.00,WeatherDisplay:10.37,2013-02-15 12:27:00,
2013-02-15 07:32:00,31.7,25.0,30.01,NW,305,0.0,2.3,76,0.00,CLR,,0.00,WeatherDisplay:10.37,2013-02-15 12:32:00,
2013-02-15 07:37:00,31.7,25.0,30.01,NW,304,0.2,3.5,76,0.00,CLR,,0.00,WeatherDisplay:10.37,2013-02-15 12:37:00,
2013-02-15 07:42:00,31.6,24.9,30.01,WNW,303,0.0,3.5,76,0.00,CLR,,0.00,WeatherDisplay:10.37,2013-02-15 12:42:00,
2013-02-15 07:47:00,31.6,25.2,30.02,NW,304,0.4,3.5,77,0.00,CLR,,0.00,WeatherDisplay:10.37,2013-02-15 12:47:00,
2013-02-15 07:52:00,31.6,25.2,30.02,NW,313,1.0,3.5,77,0.00,CLR,,0.00,WeatherDisplay:10.37,2013-02-15 12:52:00,
2013-02-15 07:57:00,31.6,25.2,30.02,NW,311,0.3,3.5,77,0.00,CLR,,0.00,WeatherDisplay:10.37,2013-02-15 12:57:00,
2013-02-15 08:02:00,31.6,25.5,30.02,WNW,293,2.2,5.8,78,0.00,CLR,,0.00,WeatherDisplay:10.37,2013-02-15 13:02:00,
2013-02-15 08:07:00,31.6,25.5,30.02,WNW,296,0.0,3.5,78,0.00,CLR,,0.00,WeatherDisplay:10.37,2013-02-15 13:07:00,
2013-02-15 08:12:00,31.5,25.4,30.02,WNW,300,0.5,2.3,78,0.00,CLR,,0.00,WeatherDisplay:10.37,2013-02-15 13:12:00,
2013-02-15 08:17:00,31.5,25.7,30.02,WNW,301,0.0,0.0,79,0.00,CLR,,0.00,WeatherDisplay:10.37,2013-02-15 13:17:00,
2013-02-15 08:22:00,31.5,25.7,30.02,WNW,292,0.0,0.0,79,0.00,CLR,,0.00,WeatherDisplay:10.37,2013-02-15 13:22:00,
2013-02-15 08:27:00,31.5,25.7,30.03,NW,309,1.0,3.5,79,0.00,CLR,,0.00,WeatherDisplay:10.37,2013-02-15 13:27:00,
2013-02-15 08:32:00,31.5,25.7,30.03,NW,304,0.0,0.0,79,0.00,CLR,,0.00,WeatherDisplay:10.37,2013-02-15 13:32:00,
2013-02-15 08:37:00,31.5,25.7,30.03,WNW,290,0.0,3.5,79,0.00,CLR,,0.00,WeatherDisplay:10.37,2013-02-15 13:37:00,
2013-02-15 08:42:00,31.5,26.0,30.03,WNW,291,0.0,3.5,80,0.00,CLR,,0.00,WeatherDisplay:10.37,2013-02-15 13:42:00,
2013-02-15 08:47:00,31.6,25.8,30.04,WNW,286,0.0,3.5,79,0.00,CLR,,0.00,WeatherDisplay:10.37,2013-02-15 13:47:00,
2013-02-15 08:52:00,31.6,26.1,30.04,NW,317,0.7,4.0,80,0.00,CLR,,0.00,WeatherDisplay:10.37,2013-02-15 13:52:00,
2013-02-15 08:57:00,31.6,26.1,30.04,NW,313,2.2,4.6,80,0.00,CLR,,0.00,WeatherDisplay:10.37,2013-02-15 13:57:00,
2013-02-15 09:02:00,31.6,26.4,30.05,North,355,4.3,7.0,81,0.00,CLR,,0.00,WeatherDisplay:10.37,2013-02-15 14:02:00,
2013-02-15 09:07:00,31.2,26.6,30.05,North,360,3.3,5.8,83,0.00,CLR,,0.00,WeatherDisplay:10.37,2013-02-15 14:07:00,
2013-02-15 09:12:00,30.7,26.4,30.05,NNW,346,4.6,10.4,84,0.00,CLR,,0.00,WeatherDisplay:10.37,2013-02-15 14:12:00,
2013-02-15 09:17:00,30.3,26.3,30.05,NNW,345,3.8,4.6,85,0.00,CLR,,0.00,WeatherDisplay:10.37,2013-02-15 14:17:00,
2013-02-15 09:22:00,30.2,28.2,30.05,North,355,4.1,4.6,92,0.00,CLR,,0.00,WeatherDisplay:10.37,2013-02-15 14:22:00,
2013-02-15 09:27:00,30.1,26.7,30.06,North,350,3.2,5.8,87,0.00,CLR,,0.00,WeatherDisplay:10.37,2013-02-15 14:27:00,
2013-02-15 09:32:00,30.1,26.7,30.06,NNW,331,5.5,10.4,87,0.00,CLR,,0.00,WeatherDisplay:10.37,2013-02-15 14:32:00,
2013-02-15 09:37:00,30.1,26.7,30.06,North,5,4.7,10.0,87,0.00,CLR,,0.00,WeatherDisplay:10.37,2013-02-15 14:37:00,
2013-02-15 09:42:00,30.1,26.7,30.06,NE,42,6.5,9.2,87,0.00,CLR,,0.00,WeatherDisplay:10.37,2013-02-15 14:42:00,
2013-02-15 09:47:00,29.0,25.1,30.06,NNE,17,7.5,11.5,85,0.00,CLR,,0.00,WeatherDisplay:10.37,2013-02-15 14:47:00,
2013-02-15 09:52:00,28.7,24.8,30.07,NNE,13,5.0,11.0,85,0.00,CLR,,0.00,WeatherDisplay:10.37,2013-02-15 14:52:00,
2013-02-15 09:57:00,28.5,24.8,30.07,North,5,5.2,9.2,86,0.00,CLR,,0.00,WeatherDisplay:10.37,2013-02-15 14:57:00,
2013-02-15 10:02:00,28.4,24.7,30.07,North,10,4.4,9.2,86,0.00,CLR,,0.00,WeatherDisplay:10.37,2013-02-15 15:02:00,
2013-02-15 10:07:00,28.5,25.1,30.08,North,5,5.2,8.0,87,0.00,CLR,,0.00,WeatherDisplay:10.37,2013-02-15 15:07:00,
2013-02-15 10:12:00,28.3,24.9,30.08,NE,37,7.7,11.5,87,0.00,CLR,,0.00,WeatherDisplay:10.37,2013-02-15 15:12:00,
2013-02-15 10:17:00,28.1,25.0,30.08,NNE,12,9.1,12.7,88,0.00,CLR,,0.00,WeatherDisplay:10.37,2013-02-15 15:17:00,
2013-02-15 10:22:00,28.0,24.9,30.08,North,5,6.9,11.5,88,0.00,CLR,,0.00,WeatherDisplay:10.37,2013-02-15 15:22:00,
2013-02-15 10:27:00,28.1,25.0,30.08,North,5,4.2,5.8,88,0.00,CLR,,0.00,WeatherDisplay:10.37,2013-02-15 15:27:00,
2013-02-15 10:32:00,28.1,25.0,30.08,North,350,9.8,15.0,88,0.00,CLR,,0.00,WeatherDisplay:10.37,2013-02-15 15:32:00,
2013-02-15 10:37:00,28.0,24.9,30.08,NNE,15,5.2,8.1,88,0.00,CLR,,0.00,WeatherDisplay:10.37,2013-02-15 15:37:00,
2013-02-15 10:42:00,28.0,24.9,30.09,North,360,5.1,10.4,88,0.00,CLR,,0.00,WeatherDisplay:10.37,2013-02-15 15:42:00,
2013-02-15 10:47:00,28.2,25.1,30.09,NNE,15,5.6,6.9,88,0.00,CLR,,0.00,WeatherDisplay:10.37,2013-02-15 15:47:00,
2013-02-15 10:52:00,28.3,25.2,30.09,North,360,6.6,11.5,88,0.00,CLR,,0.00,WeatherDisplay:10.37,2013-02-15 15:52:00,
2013-02-15 10:57:00,28.5,25.1,30.09,North,5,6.2,9.2,87,0.00,CLR,,0.00,WeatherDisplay:10.37,2013-02-15 15:57:00,
2013-02-15 11:02:00,28.5,24.8,30.09,NNE,21,9.9,18.4,86,0.00,CLR,,0.00,WeatherDisplay:10.37,2013-02-15 16:02:00,
2013-02-15 11:07:00,28.6,24.7,30.09,NNE,18,2.7,6.9,85,0.00,CLR,,0.00,WeatherDisplay:10.37,2013-02-15 16:07:00,
2013-02-15 11:12:00,29.0,25.1,30.10,North,355,4.0,6.0,85,0.00,CLR,,0.00,WeatherDisplay:10.37,2013-02-15 16:12:00,
2013-02-15 11:17:00,29.2,25.3,30.09,North,5,5.8,9.2,85,0.00,CLR,,0.00,WeatherDisplay:10.37,2013-02-15 16:17:00,
2013-02-15 11:22:00,29.0,24.8,30.10,North,5,4.7,10.4,84,0.00,CLR,,0.00,WeatherDisplay:10.37,2013-02-15 16:22:00,
2013-02-15 11:27:00,29.1,24.9,30.10,NE,42,3.2,4.6,84,0.00,CLR,,0.00,WeatherDisplay:10.37,2013-02-15 16:27:00,
2013-02-15 11:32:00,29.2,24.7,30.10,North,355,7.1,11.5,83,0.00,CLR,,0.00,WeatherDisplay:10.37,2013-02-15 16:32:00,
2013-02-15 11:37:00,29.6,25.1,30.10,NE,34,2.9,6.9,83,0.00,CLR,,0.00,WeatherDisplay:10.37,2013-02-15 16:37:00,
2013-02-15 11:42:00,29.4,24.9,30.10,NNE,15,6.2,11.5,83,0.00,CLR,,0.00,WeatherDisplay:10.37,2013-02-15 16:42:00,
2013-02-15 11:47:00,29.2,25.0,30.10,NNE,13,5.0,8.1,84,0.00,CLR,,0.00,WeatherDisplay:10.37,2013-02-15 16:47:00,
2013-02-15 11:52:00,29.2,25.3,30.11,NNE,18,3.5,4.6,85,0.00,CLR,,0.00,WeatherDisplay:10.37,2013-02-15 16:52:00,
2013-02-15 11:57:00,29.2,25.3,30.10,North,5,3.7,8.1,85,0.00,CLR,,0.00,WeatherDisplay:10.37,2013-02-15 16:57:00,
2013-02-15 12:02:00,29.0,25.3,30.10,North,5,3.7,5.8,86,0.00,CLR,,0.00,WeatherDisplay:10.37,2013-02-15 17:02:00,
2013-02-15 12:07:00,29.0,25.3,30.11,NNW,341,3.9,6.9,86,0.00,CLR,,0.00,WeatherDisplay:10.37,2013-02-15 17:07:00,
2013-02-15 12:12:00,28.8,25.1,30.10,NNW,344,5.5,8.1,86,0.00,CLR,,0.00,WeatherDisplay:10.37,2013-02-15 17:12:00,
2013-02-15 12:17:00,28.8,25.4,30.11,North,350,1.8,7.0,87,0.00,CLR,,0.00,WeatherDisplay:10.37,2013-02-15 17:17:00,
2013-02-15 12:22:00,28.6,25.2,30.11,NNW,334,4.4,5.8,87,0.00,CLR,,0.00,WeatherDisplay:10.37,2013-02-15 17:22:00,
2013-02-15 12:27:00,28.6,25.5,30.11,NNW,338,3.5,5.8,88,0.00,CLR,,0.00,WeatherDisplay:10.37,2013-02-15 17:27:00,
2013-02-15 12:32:00,28.5,25.4,30.11,NNW,328,2.9,5.8,88,0.00,CLR,,0.00,WeatherDisplay:10.37,2013-02-15 17:32:00,
2013-02-15 12:37:00,28.5,25.4,30.11,NNW,338,1.6,3.0,88,0.00,CLR,,0.00,WeatherDisplay:10.37,2013-02-15 17:37:00,
2013-02-15 12:42:00,28.3,25.2,30.11,North,350,7.4,10.4,88,0.00,CLR,,0.00,WeatherDisplay:10.37,2013-02-15 17:42:00,
2013-02-15 12:47:00,28.3,25.2,30.10,West,279,6.3,10.4,88,0.00,CLR,,0.00,WeatherDisplay:10.37,2013-02-15 17:47:00,
2013-02-15 12:52:00,28.5,25.4,30.10,North,10,4.9,8.0,88,0.00,CLR,,0.00,WeatherDisplay:10.37,2013-02-15 17:52:00,
2013-02-15 12:57:00,28.8,25.7,30.10,WNW,303,2.5,3.5,88,0.00,CLR,,0.00,WeatherDisplay:10.37,2013-02-15 17:57:00,
2013-02-15 13:02:00,29.0,25.6,30.10,WNW,286,2.3,5.8,87,0.00,CLR,,0.00,WeatherDisplay:10.37,2013-02-15 18:02:00,
2013-02-15 13:07:00,29.0,25.3,30.10,NNW,331,3.1,5.8,86,0.00,CLR,,0.00,WeatherDisplay:10.37,2013-02-15 18:07:00,
2013-02-15 13:12:00,28.8,24.9,30.10,NNW,329,6.1,11.5,85,0.00,CLR,,0.00,WeatherDisplay:10.37,2013-02-15 18:12:00,
2013-02-15 13:17:00,28.6,24.4,30.10,NNW,343,3.8,11.5,84,0.00,CLR,,0.00,WeatherDisplay:10.37,2013-02-15 18:17:00,
2013-02-15 13:22:00,28.5,23.7,30.10,NNW,346,6.1,10.4,82,0.00,CLR,,0.00,WeatherDisplay:10.37,2013-02-15 18:22:00,
2013-02-15 13:27:00,28.8,23.7,30.10,NNW,339,7.5,11.5,81,0.00,CLR,,0.00,WeatherDisplay:10.37,2013-02-15 18:27:00,
2013-02-15 13:32:00,28.9,23.5,30.10,NW,314,4.7,9.2,80,0.00,CLR,,0.00,WeatherDisplay:10.37,2013-02-15 18:32:00,
2013-02-15 13:37:00,28.9,22.9,30.10,NW,311,1.1,6.0,78,0.00,CLR,,0.00,WeatherDisplay:10.37,2013-02-15 18:37:00,
2013-02-15 13:42:00,28.9,22.3,30.10,NW,318,9.2,15.0,76,0.00,CLR,,0.00,WeatherDisplay:10.37,2013-02-15 18:42:00,
2013-02-15 13:47:00,28.7,21.8,30.10,NW,325,2.8,15.0,75,0.00,CLR,,0.00,WeatherDisplay:10.37,2013-02-15 18:47:00,
2013-02-15 13:52:00,28.8,21.6,30.10,NW,313,4.2,11.5,74,0.00,CLR,,0.00,WeatherDisplay:10.37,2013-02-15 18:52:00,
2013-02-15 13:57:00,29.1,21.8,30.10,NNW,335,3.4,4.0,74,0.00,CLR,,0.00,WeatherDisplay:10.37,2013-02-15 18:57:00,
2013-02-15 14:02:00,29.3,21.4,30.10,NNW,328,7.0,11.5,72,0.00,CLR,,0.00,WeatherDisplay:10.37,2013-02-15 19:02:00,
2013-02-15 14:07:00,29.5,21.3,30.10,West,279,1.8,4.6,71,0.00,CLR,,0.00,WeatherDisplay:10.37,2013-02-15 19:07:00,
2013-02-15 14:12:00,29.9,20.6,30.10,West,272,1.6,6.9,68,0.00,CLR,,0.00,WeatherDisplay:10.37,2013-02-15 19:12:00,
2013-02-15 14:17:00,30.1,20.8,30.10,NW,305,2.0,5.8,68,0.00,CLR,,0.00,WeatherDisplay:10.37,2013-02-15 19:17:00,
2013-02-15 14:22:00,30.1,21.5,30.10,NNW,343,4.1,5.8,70,0.00,CLR,,0.00,WeatherDisplay:10.37,2013-02-15 19:22:00,
2013-02-15 14:27:00,29.8,20.5,30.10,WNW,299,6.6,10.4,68,0.00,CLR,,0.00,WeatherDisplay:10.37,2013-02-15 19:27:00,
2013-02-15 14:32:00,29.4,20.1,30.10,NW,323,4.2,9.2,68,0.00,CLR,,0.00,WeatherDisplay:10.37,2013-02-15 19:32:00,
2013-02-15 14:37:00,29.3,19.3,30.10,NNW,341,10.9,16.1,66,0.00,CLR,,0.00,WeatherDisplay:10.37,2013-02-15 19:37:00,
2013-02-15 14:42:00,29.6,19.6,30.10,NW,314,8.6,15.0,66,0.00,CLR,,0.00,WeatherDisplay:10.37,2013-02-15 19:42:00,
2013-02-15 14:47:00,30.1,19.7,30.10,NNW,338,6.0,11.5,65,0.00,CLR,,0.00,WeatherDisplay:10.37,2013-02-15 19:47:00,
2013-02-15 14:52:00,30.6,19.1,30.10,WNW,299,6.2,11.5,62,0.00,CLR,,0.00,WeatherDisplay:10.37,2013-02-15 19:52:00,
2013-02-15 14:57:00,30.7,19.6,30.10,NW,319,6.7,12.7,63,0.00,CLR,,0.00,WeatherDisplay:10.37,2013-02-15 19:57:00,
2013-02-15 15:02:00,30.7,20.0,30.10,NW,319,4.9,11.5,64,0.00,CLR,,0.00,WeatherDisplay:10.37,2013-02-15 20:02:00,
2013-02-15 15:07:00,30.4,18.9,30.10,North,351,11.6,16.1,62,0.00,CLR,,0.00,WeatherDisplay:10.37,2013-02-15 20:07:00,
2013-02-15 15:12:00,29.8,18.7,30.11,NNW,333,7.9,13.8,63,0.00,CLR,,0.00,WeatherDisplay:10.37,2013-02-15 20:12:00,
2013-02-15 15:17:00,29.2,18.5,30.11,NW,313,5.3,11.5,64,0.00,CLR,,0.00,WeatherDisplay:10.37,2013-02-15 20:17:00,
2013-02-15 15:22:00,29.3,19.0,30.11,NNW,342,5.6,11.5,65,0.00,CLR,,0.00,WeatherDisplay:10.37,2013-02-15 20:22:00,
2013-02-15 15:27:00,29.7,19.4,30.11,NNW,331,10.6,17.0,65,0.00,CLR,,0.00,WeatherDisplay:10.37,2013-02-15 20:27:00,
2013-02-15 15:32:00,29.4,19.1,30.11,WNW,294,4.8,11.0,65,0.00,CLR,,0.00,WeatherDisplay:10.37,2013-02-15 20:32:00,
2013-02-15 15:37:00,29.3,19.0,30.12,NNW,329,4.1,15.0,65,0.00,CLR,,0.00,WeatherDisplay:10.37,2013-02-15 20:37:00,
2013-02-15 15:42:00,28.8,18.5,30.12,North,349,6.5,11.5,65,0.00,CLR,,0.00,WeatherDisplay:10.37,2013-02-15 20:42:00,
2013-02-15 15:47:00,29.0,19.1,30.12,NNW,332,5.7,11.5,66,0.00,CLR,,0.00,WeatherDisplay:10.37,2013-02-15 20:47:00,
2013-02-15 15:52:00,28.9,19.0,30.12,NW,326,3.8,4.6,66,0.00,CLR,,0.00,WeatherDisplay:10.37,2013-02-15 20:52:00,
2013-02-15 15:57:00,28.8,18.9,30.12,NNW,337,6.5,10.4,66,0.00,CLR,,0.00,WeatherDisplay:10.37,2013-02-15 20:57:00,
2013-02-15 16:02:00,28.7,18.8,30.12,NW,306,2.0,4.0,66,0.00,CLR,,0.00,WeatherDisplay:10.37,2013-02-15 21:02:00,
2013-02-15 16:07:00,28.7,18.8,30.12,NNW,331,6.9,10.4,66,0.00,CLR,,0.00,WeatherDisplay:10.37,2013-02-15 21:07:00,
2013-02-15 16:12:00,28.7,19.1,30.13,NNW,327,8.9,16.1,67,0.00,CLR,,0.00,WeatherDisplay:10.37,2013-02-15 21:12:00,
2013-02-15 16:17:00,28.5,18.9,30.13,NW,304,5.2,10.4,67,0.00,CLR,,0.00,WeatherDisplay:10.37,2013-02-15 21:17:00,
2013-02-15 16:22:00,28.5,18.9,30.13,NNW,335,4.7,9.2,67,0.00,CLR,,0.00,WeatherDisplay:10.37,2013-02-15 21:22:00,
2013-02-15 16:27:00,28.7,19.1,30.13,NW,324,3.1,5.8,67,0.00,CLR,,0.00,WeatherDisplay:10.37,2013-02-15 21:27:00,
2013-02-15 16:32:00,28.8,19.6,30.13,NW,312,2.0,7.0,68,0.00,CLR,,0.00,WeatherDisplay:10.37,2013-02-15 21:32:00,
2013-02-15 16:37:00,28.6,18.3,30.13,WNW,301,5.3,12.7,65,0.00,CLR,,0.00,WeatherDisplay:10.37,2013-02-15 21:37:00,
2013-02-15 16:42:00,28.2,17.9,30.14,NW,307,5.7,11.5,65,0.00,CLR,,0.00,WeatherDisplay:10.37,2013-02-15 21:42:00,
2013-02-15 16:47:00,27.9,17.6,30.14,NNW,340,3.8,6.9,65,0.00,CLR,,0.00,WeatherDisplay:10.37,2013-02-15 21:47:00,
2013-02-15 16:52:00,27.7,17.5,30.14,NNW,336,1.7,4.6,65,0.00,CLR,,0.00,WeatherDisplay:10.37,2013-02-15 21:52:00,
2013-02-15 16:57:00,27.8,17.9,30.14,WNW,300,1.2,3.5,66,0.00,CLR,,0.00,WeatherDisplay:10.37,2013-02-15 21:57:00,
2013-02-15 17:02:00,28.2,17.9,30.14,NNW,344,1.1,5.8,65,0.00,CLR,,0.00,WeatherDisplay:10.37,2013-02-15 22:02:00,
2013-02-15 17:07:00,28.6,18.3,30.14,WNW,299,1.1,4.6,65,0.00,CLR,,0.00,WeatherDisplay:10.37,2013-02-15 22:07:00,
2013-02-15 17:12:00,28.8,18.1,30.14,West,279,3.5,6.9,64,0.00,CLR,,0.00,WeatherDisplay:10.37,2013-02-15 22:12:00,
2013-02-15 17:17:00,28.4,17.8,30.15,NW,313,6.1,11.5,64,0.00,CLR,,0.00,WeatherDisplay:10.37,2013-02-15 22:17:00,
2013-02-15 17:22:00,28.0,17.7,30.15,NNW,328,4.6,9.2,65,0.00,CLR,,0.00,WeatherDisplay:10.37,2013-02-15 22:22:00,
2013-02-15 17:27:00,27.6,17.4,30.15,NW,320,3.4,10.4,65,0.00,CLR,,0.00,WeatherDisplay:10.37,2013-02-15 22:27:00,
2013-02-15 17:32:00,27.5,17.3,30.15,WNW,300,2.0,6.9,65,0.00,CLR,,0.00,WeatherDisplay:10.37,2013-02-15 22:32:00,
2013-02-15 17:37:00,27.4,17.5,30.15,WNW,296,2.3,6.9,66,0.00,CLR,,0.00,WeatherDisplay:10.37,2013-02-15 22:37:00,
2013-02-15 17:42:00,27.3,17.4,30.15,NW,321,1.8,3.5,66,0.00,CLR,,0.00,WeatherDisplay:10.37,2013-02-15 22:42:00,
2013-02-15 17:47:00,27.4,17.5,30.14,WNW,296,0.5,3.5,66,0.00,CLR,,0.00,WeatherDisplay:10.37,2013-02-15 22:47:00,
2013-02-15 17:52:00,27.5,17.6,30.14,NNW,331,1.5,3.5,66,0.00,CLR,,0.00,WeatherDisplay:10.37,2013-02-15 22:52:00,
2013-02-15 17:57:00,27.4,17.5,30.14,NNW,331,2.0,4.6,66,0.00,CLR,,0.00,WeatherDisplay:10.37,2013-02-15 22:57:00,
2013-02-15 18:02:00,27.3,17.8,30.14,NNW,331,0.4,3.5,67,0.00,CLR,,0.00,WeatherDisplay:10.37,2013-02-15 23:02:00,
2013-02-15 18:07:00,27.2,18.0,30.15,NNW,328,0.3,2.3,68,0.00,CLR,,0.00,WeatherDisplay:10.37,2013-02-15 23:07:00,
2013-02-15 18:12:00,27.1,17.9,30.15,NNW,330,2.8,4.6,68,0.00,CLR,,0.00,WeatherDisplay:10.37,2013-02-15 23:12:00,
2013-02-15 18:17:00,26.9,17.7,30.15,WNW,301,2.1,4.6,68,0.00,CLR,,0.00,WeatherDisplay:10.37,2013-02-15 23:17:00,
2013-02-15 18:22:00,26.8,18.0,30.15,NNW,329,1.2,4.6,69,0.00,CLR,,0.00,WeatherDisplay:10.37,2013-02-15 23:22:00,
2013-02-15 18:27:00,26.7,18.2,30.15,NNW,329,0.0,0.0,70,0.00,CLR,,0.00,WeatherDisplay:10.37,2013-02-15 23:27:00,
2013-02-15 18:32:00,26.5,17.7,30.15,WSW,257,0.5,3.5,69,0.00,CLR,,0.00,WeatherDisplay:10.37,2013-02-15 23:32:00,
2013-02-15 18:37:00,26.4,17.6,30.15,NW,321,0.0,0.0,69,0.00,CLR,,0.00,WeatherDisplay:10.37,2013-02-15 23:37:00,
2013-02-15 18:42:00,26.3,17.5,30.15,NW,321,0.0,0.0,69,0.00,CLR,,0.00,WeatherDisplay:10.37,2013-02-15 23:42:00,
2013-02-15 18:47:00,26.2,17.7,30.15,NW,321,0.0,0.0,70,0.00,CLR,,0.00,WeatherDisplay:10.37,2013-02-15 23:47:00,
2013-02-15 18:52:00,26.2,17.7,30.16,NW,321,0.0,0.0,70,0.00,CLR,,0.00,WeatherDisplay:10.37,2013-02-15 23:52:00,
2013-02-15 18:57:00,26.1,17.6,30.16,NW,321,0.0,0.0,70,0.00,CLR,,0.00,WeatherDisplay:10.37,2013-02-15 23:57:00,
2013-02-15 19:02:00,26.0,17.6,30.15,NW,321,0.0,0.0,70,0.00,CLR,,0.00,WeatherDisplay:10.37,2013-02-16 00:02:00,
2013-02-15 19:07:00,25.9,17.1,30.15,NW,321,0.0,0.0,69,0.00,CLR,,0.00,WeatherDisplay:10.37,2013-02-16 00:07:00,
2013-02-15 19:12:00,25.7,16.9,30.16,NW,321,0.0,1.1,69,0.00,CLR,,0.00,WeatherDisplay:10.37,2013-02-16 00:12:00,
2013-02-15 19:17:00,25.6,16.5,30.16,NW,321,0.0,0.0,68,0.00,CLR,,0.00,WeatherDisplay:10.37,2013-02-16 00:17:00,
2013-02-15 19:22:00,25.5,16.7,30.16,NW,321,0.0,0.0,69,0.00,CLR,,0.00,WeatherDisplay:10.37,2013-02-16 00:22:00,
2013-02-15 19:27:00,25.3,16.5,30.16,NW,321,0.0,0.0,69,0.00,CLR,,0.00,WeatherDisplay:10.37,2013-02-16 00:27:00,
2013-02-15 19:32:00,25.2,16.5,30.15,NW,321,0.0,0.0,69,0.00,CLR,,0.00,WeatherDisplay:10.37,2013-02-16 00:32:00,
2013-02-15 19:37:00,25.1,16.7,30.15,NW,321,0.0,0.0,70,0.00,CLR,,0.00,WeatherDisplay:10.37,2013-02-16 00:37:00,
2013-02-15 19:43:00,24.9,16.5,30.15,NW,321,0.0,0.0,70,0.00,CLR,,0.00,WeatherDisplay:10.37,2013-02-16 00:43:00,
2013-02-15 19:48:00,24.8,18.3,30.15,NW,321,0.0,0.0,76,0.00,CLR,,0.00,WeatherDisplay:10.37,2013-02-16 00:48:00,
2013-02-15 19:53:00,24.7,16.6,30.15,NW,321,0.0,0.0,71,0.00,CLR,,0.00,WeatherDisplay:10.37,2013-02-16 00:53:00,
2013-02-15 19:58:00,24.6,16.5,30.15,NW,321,0.0,0.0,71,0.00,CLR,,0.00,WeatherDisplay:10.37,2013-02-16 00:58:00,
2013-02-15 20:03:00,24.5,16.4,30.15,NW,321,0.0,0.0,71,0.00,CLR,,0.00,WeatherDisplay:10.37,2013-02-16 01:03:00,
2013-02-15 20:08:00,24.4,16.3,30.16,NW,321,0.0,0.0,71,0.00,CLR,,0.00,WeatherDisplay:10.37,2013-02-16 01:08:00,
2013-02-15 20:13:00,24.4,16.7,30.16,NW,321,0.0,0.0,72,0.00,CLR,,0.00,WeatherDisplay:10.37,2013-02-16 01:13:00,
2013-02-15 20:18:00,24.3,16.6,30.15,NW,321,0.0,0.0,72,0.00,CLR,,0.00,WeatherDisplay:10.37,2013-02-16 01:18:00,
2013-02-15 20:23:00,24.2,16.5,30.16,NW,321,0.0,0.0,72,0.00,CLR,,0.00,WeatherDisplay:10.37,2013-02-16 01:23:00,
2013-02-15 20:28:00,24.1,16.4,30.16,NW,321,0.0,0.0,72,0.00,CLR,,0.00,WeatherDisplay:10.37,2013-02-16 01:28:00,
2013-02-15 20:33:00,24.1,16.4,30.16,NW,321,0.0,0.0,72,0.00,CLR,,0.00,WeatherDisplay:10.37,2013-02-16 01:33:00,
2013-02-15 20:38:00,24.2,16.5,30.16,NW,321,0.0,0.0,72,0.00,CLR,,0.00,WeatherDisplay:10.37,2013-02-16 01:38:00,
2013-02-15 20:43:00,24.2,16.5,30.16,NW,321,0.0,0.0,72,0.00,CLR,,0.00,WeatherDisplay:10.37,2013-02-16 01:43:00,
2013-02-15 20:48:00,24.3,16.6,30.16,NW,321,0.0,0.0,72,0.00,CLR,,0.00,WeatherDisplay:10.37,2013-02-16 01:48:00,
2013-02-15 20:53:00,24.3,16.6,30.16,NW,321,0.0,0.0,72,0.00,CLR,,0.00,WeatherDisplay:10.37,2013-02-16 01:53:00,
2013-02-15 20:58:00,24.4,16.7,30.16,NW,321,0.0,0.0,72,0.00,CLR,,0.00,WeatherDisplay:10.37,2013-02-16 01:58:00,
2013-02-15 21:03:00,24.4,16.7,30.16,NW,321,0.0,0.0,72,0.00,CLR,,0.00,WeatherDisplay:10.37,2013-02-16 02:03:00,
2013-02-15 21:08:00,24.4,16.7,30.16,NW,321,0.0,0.0,72,0.00,CLR,,0.00,WeatherDisplay:10.37,2013-02-16 02:08:00,
2013-02-15 21:13:00,24.5,16.8,30.16,NW,321,0.0,0.0,72,0.00,CLR,,0.00,WeatherDisplay:10.37,2013-02-16 02:13:00,
2013-02-15 21:18:00,24.4,17.0,30.16,NW,321,0.0,0.0,73,0.00,CLR,,0.00,WeatherDisplay:10.37,2013-02-16 02:18:00,
2013-02-15 21:23:00,24.4,17.0,30.16,NW,321,0.0,0.0,73,0.00,CLR,,0.00,WeatherDisplay:10.37,2013-02-16 02:23:00,
2013-02-15 21:28:00,24.4,17.0,30.16,NW,321,0.0,0.0,73,0.00,CLR,,0.00,WeatherDisplay:10.37,2013-02-16 02:28:00,
2013-02-15 21:33:00,24.4,17.3,30.16,NW,321,0.0,0.0,74,0.00,CLR,,0.00,WeatherDisplay:10.37,2013-02-16 02:33:00,
2013-02-15 21:38:00,24.5,17.4,30.16,NW,321,0.0,0.0,74,0.00,CLR,,0.00,WeatherDisplay:10.37,2013-02-16 02:38:00,
2013-02-15 21:43:00,24.6,17.5,30.16,NW,321,0.0,0.0,74,0.00,CLR,,0.00,WeatherDisplay:10.37,2013-02-16 02:43:00,
2013-02-15 21:48:00,24.6,17.5,30.16,NW,321,0.0,0.0,74,0.00,CLR,,0.00,WeatherDisplay:10.37,2013-02-16 02:48:00,
2013-02-15 21:53:00,24.7,17.9,30.16,NW,321,0.0,0.0,75,0.00,CLR,,0.00,WeatherDisplay:10.37,2013-02-16 02:53:00,
2013-02-15 21:58:00,24.8,18.0,30.16,NW,321,0.0,0.0,75,0.00,CLR,,0.00,WeatherDisplay:10.37,2013-02-16 02:58:00,
2013-02-15 22:03:00,24.8,17.7,30.16,NW,321,0.0,0.0,74,0.00,CLR,,0.00,WeatherDisplay:10.37,2013-02-16 03:03:00,
2013-02-15 22:08:00,24.8,17.7,30.16,NW,321,0.0,0.0,74,0.00,CLR,,0.00,WeatherDisplay:10.37,2013-02-16 03:08:00,
2013-02-15 22:13:00,24.9,17.8,30.16,NW,321,0.0,0.0,74,0.00,CLR,,0.00,WeatherDisplay:10.37,2013-02-16 03:13:00,
2013-02-15 22:18:00,24.9,17.8,30.15,NW,321,0.0,0.0,74,0.00,CLR,,0.00,WeatherDisplay:10.37,2013-02-16 03:18:00,
2013-02-15 22:23:00,24.9,17.8,30.15,NW,321,0.0,0.0,74,0.00,CLR,,0.00,WeatherDisplay:10.37,2013-02-16 03:23:00,
2013-02-15 22:28:00,24.9,17.5,30.15,NW,321,0.0,0.0,73,0.00,CLR,,0.00,WeatherDisplay:10.37,2013-02-16 03:28:00,
2013-02-15 22:33:00,24.9,17.8,30.15,NW,321,0.0,0.0,74,0.00,CLR,,0.00,WeatherDisplay:10.37,2013-02-16 03:33:00,
2013-02-15 22:38:00,24.9,17.8,30.15,NW,321,0.0,0.0,74,0.00,CLR,,0.00,WeatherDisplay:10.37,2013-02-16 03:38:00,
2013-02-15 22:43:00,24.9,17.5,30.15,NW,321,0.0,0.0,73,0.00,CLR,,0.00,WeatherDisplay:10.37,2013-02-16 03:43:00,
2013-02-15 22:48:00,24.9,17.8,30.15,NW,321,0.0,0.0,74,0.00,CLR,,0.00,WeatherDisplay:10.37,2013-02-16 03:48:00,
2013-02-15 22:53:00,24.9,17.5,30.14,NW,321,0.0,0.0,73,0.00,CLR,,0.00,WeatherDisplay:10.37,2013-02-16 03:53:00,
2013-02-15 22:58:00,24.9,17.5,30.14,NW,321,0.0,0.0,73,0.00,CLR,,0.00,WeatherDisplay:10.37,2013-02-16 03:58:00,
2013-02-15 23:03:00,24.9,17.8,30.14,NW,321,0.0,0.0,74,0.00,CLR,,0.00,WeatherDisplay:10.37,2013-02-16 04:03:00,
2013-02-15 23:08:00,25.0,18.2,30.14,NW,321,0.0,0.0,75,0.00,CLR,,0.00,WeatherDisplay:10.37,2013-02-16 04:08:00,
2013-02-15 23:13:00,25.1,18.6,30.14,NW,321,0.0,0.0,76,0.00,CLR,,0.00,WeatherDisplay:10.37,2013-02-16 04:13:00,
2013-02-15 23:18:00,25.1,18.3,30.14,NW,321,0.0,0.0,75,0.00,CLR,,0.00,WeatherDisplay:10.37,2013-02-16 04:18:00,
2013-02-15 23:23:00,25.0,18.2,30.14,NW,321,0.0,0.0,75,0.00,CLR,,0.00,WeatherDisplay:10.37,2013-02-16 04:23:00,
2013-02-15 23:28:00,25.0,18.5,30.13,NW,321,0.0,0.0,76,0.00,CLR,,0.00,WeatherDisplay:10.37,2013-02-16 04:28:00,
2013-02-15 23:33:00,25.0,18.2,30.13,NW,321,0.0,0.0,75,0.00,CLR,,0.00,WeatherDisplay:10.37,2013-02-16 04:33:00,
2013-02-15 23:38:00,25.0,18.2,30.13,NW,321,0.0,0.0,75,0.00,CLR,,0.00,WeatherDisplay:10.37,2013-02-16 04:38:00,
2013-02-15 23:43:00,25.0,18.2,30.13,NW,321,0.0,0.0,75,0.00,CLR,,0.00,WeatherDisplay:10.37,2013-02-16 04:43:00,
2013-02-15 23:48:00,25.0,18.5,30.13,NW,321,0.0,0.0,76,0.00,CLR,,0.00,WeatherDisplay:10.37,2013-02-16 04:48:00,
2013-02-15 23:53:00,24.9,18.1,30.13,NW,321,0.0,0.0,75,0.00,CLR,,0.00,WeatherDisplay:10.37,2013-02-16 04:53:00,
2013-02-15 23:58:00,24.8,18.0,30.12,NW,321,0.0,0.0,75,0.00,CLR,,0.00,WeatherDisplay:10.37,2013-02-16 04:58:00,